createdAt,value
2023-03-28T00:02:04.484Z,1.30
2023-03-28T00:04:30.860Z,1.00
2023-03-28T00:06:57.323Z,0.90
2023-03-28T00:09:23.704Z,1.08
2023-03-28T00:11:50.153Z,1.17
2023-03-28T00:14:16.601Z,1.10
2023-03-28T00:16:42.985Z,1.30
2023-03-28T00:19:09.356Z,0.85
2023-03-28T00:21:35.743Z,1.13
2023-03-28T00:24:02.178Z,1.08
2023-03-28T00:26:28.638Z,1.20
2023-03-28T00:28:55.018Z,1.23
2023-03-28T00:31:21.497Z,1.23
2023-03-28T00:33:48.043Z,1.08
2023-03-28T00:36:14.547Z,1.00
2023-03-28T00:38:40.948Z,0.70
2023-03-28T00:41:07.309Z,0.88
2023-03-28T00:43:33.816Z,1.10
2023-03-28T00:46:09.144Z,0.60
2023-03-28T00:48:36.021Z,0.90
2023-03-28T00:51:02.397Z,1.23
2023-03-28T00:53:28.769Z,0.93
2023-03-28T00:55:55.207Z,1.00
2023-03-28T00:58:21.610Z,1.17
2023-03-28T01:00:48.000Z,1.17
2023-03-28T01:03:14.545Z,1.15
2023-03-28T01:05:41.038Z,1.15
2023-03-28T01:08:07.430Z,1.10
2023-03-28T01:10:33.856Z,1.27
2023-03-28T01:13:00.285Z,1.15
2023-03-28T01:15:26.799Z,1.20
2023-03-28T01:17:53.533Z,1.05
2023-03-28T01:20:19.916Z,0.85
2023-03-28T01:22:56.490Z,1.08
2023-03-28T01:25:23.767Z,0.90
2023-03-28T01:27:50.194Z,1.30
2023-03-28T01:30:16.642Z,1.30
2023-03-28T01:32:43.273Z,1.15
2023-03-28T01:35:09.802Z,1.10
2023-03-28T01:37:36.199Z,1.40
2023-03-28T01:40:02.663Z,1.58
2023-03-28T01:42:29.099Z,1.33
2023-03-28T01:44:55.491Z,1.73
2023-03-28T01:47:21.947Z,2.00
2023-03-28T01:49:48.397Z,1.63
2023-03-28T01:52:14.834Z,1.70
2023-03-28T01:54:41.286Z,1.35
2023-03-28T01:57:07.743Z,1.25
2023-03-28T01:59:34.178Z,1.20
2023-03-28T02:02:00.658Z,1.15
2023-03-28T02:04:27.161Z,1.20
2023-03-28T02:06:53.549Z,1.13
2023-03-28T02:09:19.941Z,1.50
2023-03-28T02:11:46.327Z,1.13
2023-03-28T02:14:12.703Z,1.30
2023-03-28T02:16:39.125Z,1.80
2023-03-28T02:19:05.509Z,1.40
2023-03-28T02:21:31.873Z,1.42
2023-03-28T02:23:58.341Z,1.27
2023-03-28T02:26:24.767Z,1.00
2023-03-28T02:28:51.148Z,1.33
2023-03-28T02:31:17.567Z,1.25
2023-03-28T02:33:44.037Z,1.15
2023-03-28T02:36:10.464Z,1.30
2023-03-28T02:38:36.866Z,1.27
2023-03-28T02:41:03.260Z,1.60
2023-03-28T02:43:29.657Z,1.30
2023-03-28T02:45:56.030Z,1.33
2023-03-28T02:48:22.450Z,1.55
2023-03-28T02:50:48.896Z,1.45
2023-03-28T02:53:15.323Z,1.63
2023-03-28T02:55:41.792Z,1.17
2023-03-28T02:58:08.302Z,1.38
2023-03-28T03:00:34.781Z,1.35
2023-03-28T03:03:01.259Z,1.48
2023-03-28T03:05:27.684Z,1.60
2023-03-28T03:07:54.084Z,1.23
2023-03-28T03:10:20.493Z,1.40
2023-03-28T03:12:46.865Z,1.10
2023-03-28T03:15:13.297Z,1.17
2023-03-28T03:17:39.738Z,1.40
2023-03-28T03:20:06.184Z,1.50
2023-03-28T03:22:32.626Z,1.20
2023-03-28T03:24:59.099Z,1.45
2023-03-28T03:27:25.564Z,1.30
2023-03-28T03:29:53.080Z,1.98
2023-03-28T03:32:19.544Z,1.38
2023-03-28T03:34:45.961Z,1.23
2023-03-28T03:37:12.380Z,0.98
2023-03-28T03:39:38.814Z,1.25
2023-03-28T03:42:05.207Z,1.20
2023-03-28T03:44:31.643Z,1.65
2023-03-28T03:46:58.065Z,1.40
2023-03-28T03:49:24.504Z,1.50
2023-03-28T03:51:50.910Z,1.67
2023-03-28T03:54:17.337Z,1.40
2023-03-28T03:56:43.835Z,1.40
2023-03-28T03:59:10.341Z,1.85
2023-03-28T04:01:36.742Z,1.58
2023-03-28T04:04:03.379Z,1.80
2023-03-28T04:06:29.799Z,1.70
2023-03-28T04:08:56.201Z,1.63
2023-03-28T04:11:22.568Z,1.50
2023-03-28T04:13:48.976Z,1.30
2023-03-28T04:16:15.439Z,1.88
2023-03-28T04:18:41.843Z,1.55
2023-03-28T04:21:08.274Z,1.50
2023-03-28T04:23:35.740Z,1.38
2023-03-28T04:26:02.430Z,1.65
2023-03-28T04:28:28.989Z,1.60
2023-03-28T04:30:55.434Z,1.48
2023-03-28T04:33:21.816Z,1.80
2023-03-28T04:35:48.350Z,1.38
2023-03-28T04:38:21.421Z,1.70
2023-03-28T04:40:47.974Z,1.45
2023-03-28T04:43:14.595Z,1.20
2023-03-28T04:45:41.081Z,1.42
2023-03-28T04:48:07.561Z,1.65
2023-03-28T04:50:35.730Z,1.75
2023-03-28T04:53:02.364Z,1.30
2023-03-28T04:55:28.764Z,1.25
2023-03-28T04:57:55.308Z,1.40
2023-03-28T05:00:21.717Z,1.77
2023-03-28T05:02:48.160Z,1.30
2023-03-28T05:05:14.605Z,1.75
2023-03-28T05:07:41.055Z,1.80
2023-03-28T05:10:07.495Z,1.38
2023-03-28T05:12:33.912Z,1.70
2023-03-28T05:15:00.300Z,1.63
2023-03-28T05:17:26.724Z,1.33
2023-03-28T05:19:53.189Z,1.73
2023-03-28T05:22:19.559Z,1.63
2023-03-28T05:24:45.941Z,1.38
2023-03-28T05:27:12.378Z,1.42
2023-03-28T05:29:38.766Z,1.70
2023-03-28T05:32:05.351Z,2.35
2023-03-28T05:34:31.860Z,1.40
2023-03-28T05:36:58.327Z,1.63
2023-03-28T05:39:24.752Z,1.85
2023-03-28T05:41:51.146Z,2.25
2023-03-28T05:44:18.808Z,1.88
2023-03-28T05:46:45.354Z,1.40
2023-03-28T05:49:11.752Z,1.55
2023-03-28T05:51:38.185Z,1.48
2023-03-28T05:54:04.616Z,1.70
2023-03-28T05:56:31.019Z,1.65
2023-03-28T05:58:57.409Z,1.70
2023-03-28T06:01:24.134Z,1.52
2023-03-28T06:03:50.712Z,1.50
2023-03-28T06:06:17.114Z,1.50
2023-03-28T06:08:43.545Z,1.73
2023-03-28T06:11:09.931Z,2.00
2023-03-28T06:13:36.344Z,1.58
2023-03-28T06:16:02.727Z,1.80
2023-03-28T06:18:29.173Z,2.03
2023-03-28T06:20:55.629Z,1.85
2023-03-28T06:23:22.085Z,1.70
2023-03-28T06:25:48.535Z,2.10
2023-03-28T06:28:14.997Z,2.05
2023-03-28T06:30:41.417Z,2.05
2023-03-28T06:33:07.856Z,1.58
2023-03-28T06:35:34.299Z,2.10
2023-03-28T06:38:00.796Z,2.20
2023-03-28T06:40:27.264Z,2.13
2023-03-28T06:42:53.985Z,2.40
2023-03-28T06:45:20.372Z,2.00
2023-03-28T06:47:46.790Z,1.77
2023-03-28T06:50:13.257Z,1.90
2023-03-28T06:52:39.660Z,1.80
2023-03-28T06:55:06.142Z,2.00
2023-03-28T06:57:32.523Z,1.60
2023-03-28T06:59:59.063Z,1.92
2023-03-28T07:02:25.562Z,2.20
2023-03-28T07:04:52.101Z,1.70
2023-03-28T07:07:18.545Z,1.55
2023-03-28T07:09:44.947Z,1.92
2023-03-28T07:12:11.434Z,2.05
2023-03-28T07:14:37.809Z,1.83
2023-03-28T07:17:04.264Z,1.98
2023-03-28T07:19:30.708Z,2.22
2023-03-28T07:21:57.245Z,1.92
2023-03-28T07:24:23.695Z,1.95
2023-03-28T07:26:50.144Z,2.05
2023-03-28T07:29:16.583Z,1.65
2023-03-28T07:31:43.084Z,2.10
2023-03-28T07:34:09.711Z,2.22
2023-03-28T07:36:36.207Z,1.95
2023-03-28T07:39:02.655Z,2.63
2023-03-28T07:41:29.043Z,2.50
2023-03-28T07:43:55.445Z,2.40
2023-03-28T07:46:21.909Z,2.38
2023-03-28T07:48:48.396Z,2.45
2023-03-28T07:51:14.801Z,2.55
2023-03-28T07:53:41.214Z,2.97
2023-03-28T07:56:07.682Z,2.70
2023-03-28T07:58:34.155Z,2.42
2023-03-28T08:01:00.704Z,2.50
2023-03-28T08:03:27.701Z,2.80
2023-03-28T08:05:54.463Z,2.80
2023-03-28T08:08:21.016Z,2.38
2023-03-28T08:10:47.398Z,2.45
2023-03-28T08:13:13.807Z,2.30
2023-03-28T08:15:40.254Z,2.45
2023-03-28T08:18:06.751Z,2.65
2023-03-28T08:20:33.411Z,2.45
2023-03-28T08:22:59.848Z,1.90
2023-03-28T08:25:26.294Z,2.17
2023-03-28T08:27:52.734Z,1.88
2023-03-28T08:30:19.154Z,2.90
2023-03-28T08:32:48.237Z,2.60
2023-03-28T08:35:15.250Z,2.40
2023-03-28T08:37:41.633Z,2.30
2023-03-28T08:40:08.048Z,2.22
2023-03-28T08:42:34.412Z,2.22
2023-03-28T08:45:00.843Z,2.40
2023-03-28T08:47:27.638Z,1.88
2023-03-28T08:49:54.055Z,2.20
2023-03-28T08:52:20.426Z,1.80
2023-03-28T08:54:46.817Z,2.03
2023-03-28T08:57:13.278Z,1.65
2023-03-28T08:59:39.708Z,1.70
2023-03-28T09:02:07.751Z,2.10
2023-03-28T09:04:34.707Z,1.50
2023-03-28T09:07:01.145Z,1.50
2023-03-28T09:09:27.707Z,2.45
2023-03-28T09:11:54.086Z,1.40
2023-03-28T09:14:20.541Z,1.70
2023-03-28T09:16:47.047Z,1.50
2023-03-28T09:19:13.533Z,1.40
2023-03-28T09:21:39.941Z,1.30
2023-03-28T09:24:06.390Z,1.38
2023-03-28T09:26:32.802Z,1.30
2023-03-28T09:28:59.167Z,1.30
2023-03-28T09:31:27.041Z,1.10
2023-03-28T09:33:53.680Z,1.13
2023-03-28T09:36:20.139Z,1.67
2023-03-28T09:38:46.640Z,1.23
2023-03-28T09:41:13.062Z,1.80
2023-03-28T09:43:39.500Z,1.70
2023-03-28T09:46:06.021Z,1.90
2023-03-28T09:48:32.697Z,1.20
2023-03-28T09:50:59.544Z,1.50
2023-03-28T09:53:26.057Z,1.60
2023-03-28T09:56:03.435Z,1.60
2023-03-28T09:58:30.593Z,1.33
2023-03-28T10:00:57.034Z,1.73
2023-03-28T10:03:23.642Z,1.50
2023-03-28T10:05:50.209Z,1.77
2023-03-28T10:08:16.680Z,1.25
2023-03-28T10:10:43.093Z,1.30
2023-03-28T10:13:09.471Z,1.77
2023-03-28T10:15:35.963Z,1.42
2023-03-28T10:18:02.553Z,1.30
2023-03-28T10:20:29.136Z,1.50
2023-03-28T10:22:55.548Z,2.00
2023-03-28T10:25:22.236Z,1.60
2023-03-28T10:27:48.722Z,1.90
2023-03-28T10:30:15.320Z,1.45
2023-03-28T10:32:41.887Z,1.92
2023-03-28T10:35:08.367Z,2.03
2023-03-28T10:37:34.748Z,1.75
2023-03-28T10:40:01.181Z,1.75
2023-03-28T10:42:27.853Z,1.52
2023-03-28T10:44:54.424Z,1.52
2023-03-28T10:47:20.826Z,1.50
2023-03-28T10:49:47.317Z,1.17
2023-03-28T10:52:13.785Z,1.05
2023-03-28T10:54:40.225Z,1.25
2023-03-28T10:57:06.692Z,0.93
2023-03-28T10:59:33.355Z,1.05
2023-03-28T11:01:59.898Z,1.10
2023-03-28T11:04:26.350Z,1.67
2023-03-28T11:06:52.757Z,1.20
2023-03-28T11:09:19.185Z,1.20
2023-03-28T11:11:45.550Z,1.20
2023-03-28T11:14:12.014Z,1.67
2023-03-28T11:16:38.530Z,1.45
2023-03-28T11:19:05.018Z,1.63
2023-03-28T11:21:31.465Z,1.55
2023-03-28T11:23:57.917Z,1.27
2023-03-28T11:26:24.592Z,1.55
2023-03-28T11:28:50.974Z,1.50
2023-03-28T11:31:17.465Z,1.30
2023-03-28T11:33:43.972Z,1.33
2023-03-28T11:36:10.422Z,1.50
2023-03-28T11:38:36.804Z,1.10
2023-03-28T11:41:03.261Z,1.50
2023-03-28T11:43:29.701Z,1.50
2023-03-28T11:45:56.177Z,1.73
2023-03-28T11:48:22.643Z,1.67
2023-03-28T11:50:49.042Z,2.33
2023-03-28T11:53:15.439Z,1.23
2023-03-28T11:55:41.834Z,1.48
2023-03-28T11:58:08.277Z,1.60
2023-03-28T12:00:34.927Z,1.60
2023-03-28T12:03:01.666Z,2.15
2023-03-28T12:05:28.197Z,1.90
2023-03-28T12:07:54.735Z,1.40
2023-03-28T12:10:21.158Z,1.75
2023-03-28T12:12:47.572Z,1.90
2023-03-28T12:15:13.986Z,1.80
2023-03-28T12:17:40.480Z,2.20
2023-03-28T12:20:06.931Z,2.13
2023-03-28T12:22:33.408Z,2.20
2023-03-28T12:24:59.846Z,1.58
2023-03-28T12:27:26.291Z,1.23
2023-03-28T12:29:52.730Z,1.30
2023-03-28T12:32:19.191Z,1.77
2023-03-28T12:34:45.666Z,1.40
2023-03-28T12:37:12.107Z,1.33
2023-03-28T12:39:38.586Z,1.08
2023-03-28T12:42:05.086Z,1.33
2023-03-28T12:44:31.481Z,1.80
2023-03-28T12:46:57.941Z,1.30
2023-03-28T12:49:24.720Z,1.15
2023-03-28T12:51:51.120Z,1.40
2023-03-28T12:54:17.500Z,1.45
2023-03-28T12:56:43.904Z,1.33
2023-03-28T12:59:10.307Z,1.73
2023-03-28T13:01:36.772Z,1.40
2023-03-28T13:04:03.251Z,1.23
2023-03-28T13:06:29.686Z,1.98
2023-03-28T13:08:56.138Z,1.33
2023-03-28T13:11:22.620Z,2.03
2023-03-28T13:13:49.025Z,1.20
2023-03-28T13:16:15.539Z,1.42
2023-03-28T13:18:41.990Z,1.85
2023-03-28T13:21:08.391Z,1.75
2023-03-28T13:23:34.844Z,1.13
2023-03-28T13:26:01.468Z,1.80
2023-03-28T13:28:28.091Z,1.63
2023-03-28T13:30:54.739Z,1.60
2023-03-28T13:33:21.151Z,1.33
2023-03-28T13:35:47.648Z,1.38
2023-03-28T13:38:14.068Z,1.40
2023-03-28T13:40:40.507Z,1.60
2023-03-28T13:43:06.938Z,1.50
2023-03-28T13:45:33.437Z,2.03
2023-03-28T13:48:12.139Z,1.95
2023-03-28T13:50:39.810Z,1.58
2023-03-28T13:53:06.249Z,1.67
2023-03-28T13:55:32.690Z,1.67
2023-03-28T13:57:59.190Z,1.40
2023-03-28T14:00:25.649Z,1.92
2023-03-28T14:02:52.380Z,1.60
2023-03-28T14:05:18.889Z,1.60
2023-03-28T14:07:45.333Z,1.30
2023-03-28T14:10:11.721Z,1.40
2023-03-28T14:12:38.116Z,1.58
2023-03-28T14:15:04.525Z,1.75
2023-03-28T14:17:31.001Z,2.03
2023-03-28T14:19:57.735Z,1.73
2023-03-28T14:22:24.177Z,1.40
2023-03-28T14:24:50.616Z,1.90
2023-03-28T14:27:17.061Z,1.67
2023-03-28T14:29:43.496Z,2.03
2023-03-28T14:32:09.942Z,1.27
2023-03-28T14:34:36.416Z,1.45
2023-03-28T14:37:02.839Z,0.90
2023-03-28T14:39:29.272Z,1.42
2023-03-28T14:41:55.683Z,1.45
2023-03-28T14:44:22.239Z,1.73
2023-03-28T14:46:48.674Z,1.20
2023-03-28T14:49:15.072Z,1.40
2023-03-28T14:51:41.496Z,1.42
2023-03-28T14:54:07.947Z,1.48
2023-03-28T14:56:34.398Z,1.67
2023-03-28T14:59:00.831Z,1.40
2023-03-28T15:01:27.222Z,1.60
2023-03-28T15:03:53.861Z,1.40
2023-03-28T15:06:20.453Z,1.15
2023-03-28T15:08:46.876Z,1.05
2023-03-28T15:11:13.286Z,1.25
2023-03-28T15:13:39.707Z,1.95
2023-03-28T15:16:06.243Z,1.40
2023-03-28T15:18:32.927Z,1.80
2023-03-28T15:20:59.675Z,1.58
2023-03-28T15:23:26.282Z,1.38
2023-03-28T15:25:52.681Z,1.30
2023-03-28T15:28:19.067Z,1.88
2023-03-28T15:30:45.457Z,1.80
2023-03-28T15:33:11.905Z,2.13
2023-03-28T15:35:38.428Z,1.55
2023-03-28T15:38:04.956Z,2.10
2023-03-28T15:40:31.440Z,2.40
2023-03-28T15:42:57.947Z,1.70
2023-03-28T15:45:24.574Z,1.90
2023-03-28T15:47:51.149Z,2.20
2023-03-28T15:50:17.639Z,1.40
2023-03-28T15:52:44.062Z,1.90
2023-03-28T15:55:10.513Z,1.70
2023-03-28T15:57:36.913Z,1.80
2023-03-28T16:00:03.396Z,1.60
2023-03-28T16:02:29.880Z,1.38
2023-03-28T16:04:56.352Z,1.70
2023-03-28T16:07:22.760Z,2.40
2023-03-28T16:09:49.150Z,2.03
2023-03-28T16:12:15.577Z,1.80
2023-03-28T16:14:41.948Z,2.05
2023-03-28T16:17:08.393Z,2.05
2023-03-28T16:19:37.914Z,1.50
2023-03-28T16:22:04.321Z,1.65
2023-03-28T16:24:30.724Z,2.00
2023-03-28T16:26:57.116Z,1.45
2023-03-28T16:29:23.760Z,2.25
2023-03-28T16:31:50.265Z,2.00
2023-03-28T16:34:16.702Z,2.00
2023-03-28T16:36:43.116Z,1.83
2023-03-28T16:39:09.598Z,1.85
2023-03-28T16:41:35.995Z,1.70
2023-03-28T16:44:02.390Z,1.60
2023-03-28T16:46:28.875Z,1.90
2023-03-28T16:48:55.396Z,1.75
2023-03-28T16:51:21.839Z,2.00
2023-03-28T16:53:48.282Z,1.77
2023-03-28T16:56:14.700Z,1.80
2023-03-28T16:58:41.182Z,1.80
2023-03-28T17:01:07.682Z,1.85
2023-03-28T17:03:34.251Z,1.70
2023-03-28T17:06:01.097Z,1.48
2023-03-28T17:08:27.812Z,1.73
2023-03-28T17:10:54.210Z,1.42
2023-03-28T17:13:20.650Z,1.38
2023-03-28T17:15:47.143Z,1.52
2023-03-28T17:18:13.615Z,1.48
2023-03-28T17:20:40.096Z,1.40
2023-03-28T17:23:06.497Z,1.33
2023-03-28T17:25:41.729Z,1.30
2023-03-28T17:28:11.267Z,1.50
2023-03-28T17:30:37.767Z,1.30
2023-03-28T17:33:04.534Z,1.42
2023-03-28T17:35:31.082Z,1.27
2023-03-28T17:37:57.791Z,1.30
2023-03-28T17:40:24.196Z,1.48
2023-03-28T17:42:50.600Z,1.60
2023-03-28T17:45:16.978Z,1.40
2023-03-28T17:47:43.382Z,1.48
2023-03-28T17:50:09.988Z,1.20
2023-03-28T17:52:36.441Z,1.45
2023-03-28T17:55:02.928Z,1.70
2023-03-28T17:57:29.384Z,1.30
2023-03-28T17:59:55.818Z,1.70
2023-03-28T18:02:22.254Z,1.67
2023-03-28T18:04:48.740Z,1.73
2023-03-28T18:07:15.596Z,1.50
2023-03-28T18:09:43.441Z,1.48
2023-03-28T18:12:09.880Z,2.00
2023-03-28T18:14:36.311Z,2.00
2023-03-28T18:17:02.675Z,1.83
2023-03-28T18:19:29.114Z,1.70
2023-03-28T18:21:55.507Z,1.48
2023-03-28T18:24:21.888Z,1.50
2023-03-28T18:26:48.325Z,1.30
2023-03-28T18:29:14.726Z,1.30
2023-03-28T18:31:41.178Z,1.50
2023-03-28T18:34:07.682Z,1.73
2023-03-28T18:36:34.160Z,1.65
2023-03-28T18:39:00.686Z,2.33
2023-03-28T18:41:27.168Z,2.20
2023-03-28T18:43:53.784Z,2.00
2023-03-28T18:46:20.297Z,1.90
2023-03-28T18:48:46.699Z,1.60
2023-03-28T18:51:13.112Z,1.70
2023-03-28T18:53:39.492Z,2.05
2023-03-28T18:56:05.931Z,1.65
2023-03-28T18:58:32.498Z,1.65
2023-03-28T19:00:59.090Z,1.60
2023-03-28T19:03:25.881Z,1.48
2023-03-28T19:05:52.375Z,1.55
2023-03-28T19:08:18.828Z,1.80
2023-03-28T19:10:45.215Z,1.50
2023-03-28T19:13:11.612Z,1.42
2023-03-28T19:15:37.993Z,1.90
2023-03-28T19:18:04.538Z,2.40
2023-03-28T19:20:31.051Z,2.10
2023-03-28T19:22:57.789Z,2.22
2023-03-28T19:25:24.249Z,1.83
2023-03-28T19:27:50.682Z,2.13
2023-03-28T19:30:17.123Z,2.22
2023-03-28T19:32:43.549Z,2.33
2023-03-28T19:35:09.970Z,1.95
2023-03-28T19:37:36.432Z,2.00
2023-03-28T19:40:02.865Z,2.45
2023-03-28T19:42:29.330Z,2.72
2023-03-28T19:44:55.737Z,2.40
2023-03-28T19:47:22.111Z,2.22
2023-03-28T19:49:48.525Z,2.35
2023-03-28T19:52:14.901Z,2.30
2023-03-28T19:54:41.354Z,2.65
2023-03-28T19:57:08.445Z,2.10
2023-03-28T19:59:35.044Z,2.25
2023-03-28T20:02:01.622Z,2.50
2023-03-28T20:04:28.243Z,1.95
2023-03-28T20:06:54.823Z,2.17
2023-03-28T20:09:21.226Z,2.20
2023-03-28T20:11:47.632Z,2.13
2023-03-28T20:14:14.035Z,2.25
2023-03-28T20:16:40.500Z,1.42
2023-03-28T20:19:06.908Z,1.60
2023-03-28T20:21:33.515Z,1.60
2023-03-28T20:23:59.920Z,1.70
2023-03-28T20:26:26.331Z,1.73
2023-03-28T20:28:52.798Z,1.63
2023-03-28T20:31:19.331Z,1.38
2023-03-28T20:33:45.869Z,1.20
2023-03-28T20:36:12.302Z,1.20
2023-03-28T20:38:38.707Z,1.30
2023-03-28T20:41:05.184Z,1.05
2023-03-28T20:43:31.614Z,1.13
2023-03-28T20:45:58.053Z,1.50
2023-03-28T20:48:24.588Z,0.98
2023-03-28T20:50:51.042Z,1.00
2023-03-28T20:53:17.498Z,1.48
2023-03-28T20:55:43.970Z,0.90
2023-03-28T20:58:10.366Z,1.30
2023-03-28T21:00:36.786Z,1.27
2023-03-28T21:03:03.314Z,1.10
2023-03-28T21:05:29.899Z,1.23
2023-03-28T21:07:56.376Z,1.35
2023-03-28T21:10:22.910Z,1.40
2023-03-28T21:12:49.355Z,1.30
2023-03-28T21:15:15.823Z,1.10
2023-03-28T21:17:42.301Z,1.05
2023-03-28T21:20:08.701Z,1.50
2023-03-28T21:22:35.251Z,1.30
2023-03-28T21:25:01.714Z,1.20
2023-03-28T21:27:28.235Z,1.60
2023-03-28T21:29:54.884Z,1.15
2023-03-28T21:32:21.340Z,1.20
2023-03-28T21:34:47.800Z,1.33
2023-03-28T21:37:14.209Z,1.40
2023-03-28T21:39:40.671Z,1.30
2023-03-28T21:42:07.077Z,1.33
2023-03-28T21:44:33.550Z,1.58
2023-03-28T21:47:00.048Z,1.30
2023-03-28T21:49:26.517Z,1.27
2023-03-28T21:51:52.973Z,1.20
2023-03-28T21:54:19.435Z,1.40
2023-03-28T21:56:45.961Z,1.40
2023-03-28T21:59:12.426Z,1.50
2023-03-28T22:01:38.906Z,1.70
2023-03-28T22:04:05.386Z,1.30
2023-03-28T22:06:31.871Z,1.50
2023-03-28T22:08:58.358Z,1.45
2023-03-28T22:11:24.955Z,1.65
2023-03-28T22:13:51.410Z,1.60
2023-03-28T22:16:17.953Z,1.38
2023-03-28T22:18:44.470Z,1.80
2023-03-28T22:21:10.962Z,1.70
2023-03-28T22:23:37.396Z,1.52
2023-03-28T22:26:03.853Z,1.48
2023-03-28T22:28:30.299Z,1.30
2023-03-28T22:30:58.452Z,1.50
2023-03-28T22:33:25.018Z,1.58
2023-03-28T22:35:51.577Z,1.20
2023-03-28T22:38:18.083Z,1.58
2023-03-28T22:40:44.497Z,1.55
2023-03-28T22:43:10.971Z,1.63
2023-03-28T22:45:37.353Z,1.90
2023-03-28T22:48:03.870Z,1.52
2023-03-28T22:50:30.416Z,2.00
2023-03-28T22:52:56.830Z,1.40
2023-03-28T22:55:23.267Z,1.60
2023-03-28T22:57:49.724Z,1.63
2023-03-28T23:00:16.165Z,1.60
2023-03-28T23:02:42.659Z,1.88
2023-03-28T23:05:09.220Z,1.48
2023-03-28T23:07:35.694Z,2.00
2023-03-28T23:10:02.099Z,1.90
2023-03-28T23:12:28.746Z,2.28
2023-03-28T23:14:55.174Z,2.40
2023-03-28T23:17:21.613Z,2.38
2023-03-28T23:19:49.908Z,2.30
2023-03-28T23:22:16.634Z,2.17
2023-03-28T23:24:43.070Z,2.17
2023-03-28T23:27:09.511Z,2.40
2023-03-28T23:29:35.992Z,1.80
2023-03-28T23:32:02.621Z,2.05
2023-03-28T23:34:29.191Z,2.20
2023-03-28T23:36:55.602Z,2.47
2023-03-28T23:39:21.990Z,2.50
2023-03-28T23:41:48.388Z,2.50
2023-03-28T23:44:14.804Z,2.55
2023-03-28T23:46:41.250Z,2.20
2023-03-28T23:49:07.646Z,2.10
2023-03-28T23:51:34.121Z,2.08
2023-03-28T23:54:00.533Z,1.95
2023-03-28T23:56:26.936Z,2.38
2023-03-28T23:58:53.304Z,1.77
